createdAt,value
2022-12-08T00:00:42.444Z,998.07
2022-12-08T00:01:41.686Z,998.09
2022-12-08T00:02:48.976Z,998.10
2022-12-08T00:03:41.730Z,998.04
2022-12-08T00:04:41.683Z,998.10
2022-12-08T00:05:41.351Z,998.11
2022-12-08T00:06:42.385Z,998.09
2022-12-08T00:07:41.615Z,998.11
2022-12-08T00:08:41.578Z,998.09
2022-12-08T00:09:41.332Z,998.08
2022-12-08T00:10:50.144Z,998.09
2022-12-08T00:11:49.584Z,998.03
2022-12-08T00:12:44.577Z,998.10
2022-12-08T00:13:41.292Z,998.05
2022-12-08T00:14:48.523Z,998.02
2022-12-08T00:15:41.280Z,998.05
2022-12-08T00:16:56.815Z,998.02
2022-12-08T00:17:41.472Z,998.01
2022-12-08T00:18:41.249Z,997.98
2022-12-08T00:19:44.267Z,998.01
2022-12-08T00:20:41.229Z,997.97
2022-12-08T00:21:41.193Z,997.99
2022-12-08T00:22:41.195Z,997.97
2022-12-08T00:23:41.174Z,998.00
2022-12-08T00:24:48.326Z,997.97
2022-12-08T00:25:41.157Z,997.97
2022-12-08T00:26:41.419Z,997.92
2022-12-08T00:27:41.133Z,997.95
2022-12-08T00:28:41.136Z,997.88
2022-12-08T00:29:56.787Z,997.86
2022-12-08T00:30:56.735Z,997.89
2022-12-08T00:31:41.143Z,997.87
2022-12-08T00:32:42.098Z,997.87
2022-12-08T00:33:41.294Z,997.88
2022-12-08T00:34:41.079Z,997.85
2022-12-08T00:35:43.194Z,997.81
2022-12-08T00:36:41.358Z,997.80
2022-12-08T00:37:48.323Z,997.82
2022-12-08T00:38:44.281Z,997.81
2022-12-08T00:39:41.002Z,997.79
2022-12-08T00:41:51.115Z,997.79
2022-12-08T00:42:50.885Z,997.76
2022-12-08T00:43:52.361Z,997.76
2022-12-08T00:44:50.843Z,997.71
2022-12-08T00:45:58.401Z,997.73
2022-12-08T00:46:51.856Z,997.69
2022-12-08T00:47:50.842Z,997.71
2022-12-08T00:48:52.046Z,997.66
2022-12-08T00:49:51.014Z,997.70
2022-12-08T00:50:51.015Z,997.72
2022-12-08T00:51:51.016Z,997.72
2022-12-08T00:52:51.028Z,997.67
2022-12-08T00:53:58.067Z,997.66
2022-12-08T00:54:50.756Z,997.71
2022-12-08T00:55:50.953Z,997.70
2022-12-08T00:56:50.955Z,997.70
2022-12-08T00:57:50.965Z,997.66
2022-12-08T00:59:06.284Z,997.64
2022-12-08T00:59:50.684Z,997.68
2022-12-08T01:00:50.768Z,997.64
2022-12-08T01:01:53.930Z,997.64
2022-12-08T01:02:50.752Z,997.64
2022-12-08T01:03:50.960Z,997.66
2022-12-08T01:04:51.904Z,997.66
2022-12-08T01:05:50.647Z,997.65
2022-12-08T01:06:51.629Z,997.66
2022-12-08T01:07:50.703Z,997.67
2022-12-08T01:08:50.618Z,997.69
2022-12-08T01:09:53.622Z,997.64
2022-12-08T01:10:51.814Z,997.69
2022-12-08T01:11:57.870Z,997.65
2022-12-08T01:12:51.796Z,997.68
2022-12-08T01:13:51.786Z,997.67
2022-12-08T01:14:50.562Z,997.72
2022-12-08T01:15:50.534Z,997.72
2022-12-08T01:16:53.833Z,997.67
2022-12-08T01:17:50.737Z,997.71
2022-12-08T01:18:50.746Z,997.69
2022-12-08T01:19:51.484Z,997.71
2022-12-08T01:20:50.502Z,997.69
2022-12-08T01:21:50.696Z,997.69
2022-12-08T01:22:57.643Z,997.64
2022-12-08T01:23:50.434Z,997.68
2022-12-08T01:24:50.453Z,997.70
2022-12-08T01:25:50.662Z,997.66
2022-12-08T01:26:51.426Z,997.65
2022-12-08T01:27:50.643Z,997.62
2022-12-08T01:28:57.576Z,997.64
2022-12-08T01:29:51.633Z,997.62
2022-12-08T01:30:50.701Z,997.65
2022-12-08T01:31:50.573Z,997.62
2022-12-08T01:32:51.367Z,997.67
2022-12-08T01:33:50.339Z,997.66
2022-12-08T01:34:50.331Z,997.69
2022-12-08T01:35:50.567Z,997.70
2022-12-08T01:36:50.317Z,997.65
2022-12-08T01:37:53.337Z,997.64
2022-12-08T01:38:50.519Z,997.63
2022-12-08T01:39:53.546Z,997.63
2022-12-08T01:40:50.274Z,997.63
2022-12-08T01:41:50.266Z,997.64
2022-12-08T01:42:50.250Z,997.60
2022-12-08T01:43:53.234Z,997.63
2022-12-08T01:44:51.243Z,997.58
2022-12-08T01:45:50.227Z,997.59
2022-12-08T01:46:50.257Z,997.57
2022-12-08T01:47:53.486Z,997.61
2022-12-08T01:49:05.617Z,997.58
2022-12-08T01:49:53.457Z,997.61
2022-12-08T01:50:50.171Z,997.52
2022-12-08T01:51:50.170Z,997.53
2022-12-08T01:52:50.400Z,997.54
2022-12-08T01:53:53.149Z,997.48
2022-12-08T01:54:53.421Z,997.49
2022-12-08T01:55:53.096Z,997.48
2022-12-08T01:56:50.335Z,997.47
2022-12-08T01:57:50.094Z,997.47
2022-12-08T01:58:50.084Z,997.44
2022-12-08T01:59:51.309Z,997.42
2022-12-08T02:00:53.144Z,997.39
2022-12-08T02:01:50.148Z,997.39
2022-12-08T02:02:50.088Z,997.36
2022-12-08T02:03:53.050Z,997.35
2022-12-08T02:04:57.423Z,997.37
2022-12-08T02:05:49.998Z,997.30
2022-12-08T02:06:53.039Z,997.33
2022-12-08T02:07:50.411Z,997.28
2022-12-08T02:08:50.210Z,997.27
2022-12-08T02:09:50.200Z,997.28
2022-12-08T02:10:51.217Z,997.27
2022-12-08T02:11:49.947Z,997.28
2022-12-08T02:12:53.202Z,997.23
2022-12-08T02:13:49.965Z,997.28
2022-12-08T02:14:52.935Z,997.25
2022-12-08T02:15:50.183Z,997.27
2022-12-08T02:16:49.895Z,997.23
2022-12-08T02:17:57.157Z,997.21
2022-12-08T02:19:08.022Z,997.22
2022-12-08T02:19:50.873Z,997.24
2022-12-08T02:20:52.877Z,997.20
2022-12-08T02:21:49.838Z,997.20
2022-12-08T02:22:50.844Z,997.20
2022-12-08T02:23:49.847Z,997.18
2022-12-08T02:24:53.079Z,997.20
2022-12-08T02:25:51.047Z,997.21
2022-12-08T02:27:05.048Z,997.19
2022-12-08T02:27:49.784Z,997.21
2022-12-08T02:28:50.027Z,997.20
2022-12-08T02:29:49.747Z,997.26
2022-12-08T02:30:50.058Z,997.26
2022-12-08T02:31:50.986Z,997.24
2022-12-08T02:32:49.961Z,997.18
2022-12-08T02:33:52.962Z,997.18
2022-12-08T02:34:49.740Z,997.19
2022-12-08T02:35:57.228Z,997.20
2022-12-08T02:36:52.957Z,997.15
2022-12-08T02:37:56.797Z,997.18
2022-12-08T02:38:49.701Z,997.20
2022-12-08T02:39:49.917Z,997.19
2022-12-08T02:40:52.674Z,997.18
2022-12-08T02:41:49.643Z,997.18
2022-12-08T02:42:49.626Z,997.21
2022-12-08T02:43:49.603Z,997.13
2022-12-08T02:44:49.605Z,997.19
2022-12-08T02:45:49.891Z,997.21
2022-12-08T02:46:52.644Z,997.17
2022-12-08T02:47:49.799Z,997.20
2022-12-08T02:48:49.558Z,997.16
2022-12-08T02:49:49.545Z,997.16
2022-12-08T02:50:49.544Z,997.12
2022-12-08T02:51:49.796Z,997.09
2022-12-08T02:52:49.519Z,997.12
2022-12-08T02:53:49.673Z,997.10
2022-12-08T02:54:49.504Z,997.11
2022-12-08T02:55:50.497Z,997.08
2022-12-08T02:56:49.765Z,997.10
2022-12-08T02:57:52.745Z,997.12
2022-12-08T02:58:52.489Z,997.06
2022-12-08T02:59:49.436Z,997.08
2022-12-08T03:00:49.461Z,997.04
2022-12-08T03:01:49.516Z,997.09
2022-12-08T03:02:50.733Z,997.02
2022-12-08T03:03:52.463Z,997.00
2022-12-08T03:04:50.407Z,997.03
2022-12-08T03:05:49.370Z,997.00
2022-12-08T03:06:49.403Z,996.99
2022-12-08T03:07:52.497Z,997.02
2022-12-08T03:08:50.387Z,996.99
2022-12-08T03:10:04.993Z,996.97
2022-12-08T03:10:49.568Z,996.95
2022-12-08T03:11:49.341Z,996.95
2022-12-08T03:12:49.330Z,996.91
2022-12-08T03:13:50.551Z,996.89
2022-12-08T03:15:04.560Z,996.89
2022-12-08T03:15:49.350Z,996.91
2022-12-08T03:16:49.303Z,996.89
2022-12-08T03:17:56.544Z,996.92
2022-12-08T03:18:50.530Z,996.89
2022-12-08T03:19:50.265Z,996.91
2022-12-08T03:20:49.229Z,996.86
2022-12-08T03:21:49.466Z,996.91
2022-12-08T03:22:56.610Z,996.88
2022-12-08T03:23:49.181Z,996.88
2022-12-08T03:24:49.182Z,996.86
2022-12-08T03:25:56.303Z,996.86
2022-12-08T03:26:49.184Z,996.83
2022-12-08T03:28:04.551Z,996.83
2022-12-08T03:28:49.192Z,996.84
2022-12-08T03:29:50.132Z,996.83
2022-12-08T03:30:49.399Z,996.80
2022-12-08T03:31:49.125Z,996.80
2022-12-08T03:32:56.154Z,996.78
2022-12-08T03:33:50.110Z,996.78
2022-12-08T03:34:56.442Z,996.77
2022-12-08T03:35:50.065Z,996.74
2022-12-08T03:36:49.333Z,996.75
2022-12-08T03:38:04.371Z,996.70
2022-12-08T03:38:49.288Z,996.73
2022-12-08T03:39:49.265Z,996.76
2022-12-08T03:40:50.054Z,996.69
2022-12-08T03:41:49.305Z,996.71
2022-12-08T03:42:48.999Z,996.72
2022-12-08T03:43:48.978Z,996.69
2022-12-08T03:44:48.975Z,996.70
2022-12-08T03:45:50.455Z,996.70
2022-12-08T03:46:51.985Z,996.68
2022-12-08T03:47:49.205Z,996.67
2022-12-08T03:48:48.941Z,996.66
2022-12-08T03:49:48.915Z,996.66
2022-12-08T03:50:48.927Z,996.64
2022-12-08T03:51:49.946Z,996.64
2022-12-08T03:52:49.165Z,996.64
2022-12-08T03:53:48.893Z,996.61
2022-12-08T03:54:49.901Z,996.56
2022-12-08T03:55:52.125Z,996.55
2022-12-08T03:56:48.882Z,996.59
2022-12-08T03:57:52.099Z,996.53
2022-12-08T03:58:48.879Z,996.50
2022-12-08T04:00:10.065Z,996.51
2022-12-08T04:00:48.800Z,996.48
2022-12-08T04:01:48.830Z,996.49
2022-12-08T04:02:49.052Z,996.49
2022-12-08T04:03:50.028Z,996.45
2022-12-08T04:04:49.049Z,996.45
2022-12-08T04:05:48.759Z,996.45
2022-12-08T04:06:48.767Z,996.43
2022-12-08T04:07:56.165Z,996.46
2022-12-08T04:08:51.769Z,996.45
2022-12-08T04:09:48.970Z,996.44
2022-12-08T04:10:48.718Z,996.47
2022-12-08T04:11:48.711Z,996.43
2022-12-08T04:12:49.931Z,996.46
2022-12-08T04:13:48.930Z,996.46
2022-12-08T04:14:48.917Z,996.46
2022-12-08T04:15:51.725Z,996.46
2022-12-08T04:16:48.886Z,996.45
2022-12-08T04:17:48.664Z,996.47
2022-12-08T04:18:48.613Z,996.47
2022-12-08T04:19:48.614Z,996.44
2022-12-08T04:20:48.588Z,996.43
2022-12-08T04:21:49.835Z,996.44
2022-12-08T04:22:48.591Z,996.44
2022-12-08T04:23:48.584Z,996.44
2022-12-08T04:24:48.593Z,996.42
2022-12-08T04:25:49.571Z,996.42
2022-12-08T04:26:48.783Z,996.41
2022-12-08T04:27:48.774Z,996.41
2022-12-08T04:28:51.803Z,996.39
2022-12-08T04:29:48.741Z,996.36
2022-12-08T04:30:48.749Z,996.35
2022-12-08T04:31:48.803Z,996.39
2022-12-08T04:32:51.508Z,996.37
2022-12-08T04:33:48.470Z,996.40
2022-12-08T04:34:48.474Z,996.39
2022-12-08T04:35:51.752Z,996.36
2022-12-08T04:36:49.430Z,996.33
2022-12-08T04:37:48.689Z,996.37
2022-12-08T04:38:48.639Z,996.33
2022-12-08T04:39:48.420Z,996.39
2022-12-08T04:40:48.652Z,996.40
2022-12-08T04:41:55.926Z,996.34
2022-12-08T04:42:48.365Z,996.37
2022-12-08T04:43:48.601Z,996.34
2022-12-08T04:44:48.587Z,996.37
2022-12-08T04:45:48.331Z,996.33
2022-12-08T04:46:48.401Z,996.31
2022-12-08T04:47:51.345Z,996.35
2022-12-08T04:48:49.585Z,996.33
2022-12-08T04:49:48.549Z,996.28
2022-12-08T04:50:48.292Z,996.29
2022-12-08T04:51:48.531Z,996.28
2022-12-08T04:52:48.275Z,996.28
2022-12-08T04:53:49.252Z,996.33
2022-12-08T04:54:49.315Z,996.33
2022-12-08T04:55:48.224Z,996.35
2022-12-08T04:56:48.259Z,996.30
2022-12-08T04:57:51.252Z,996.27
2022-12-08T04:59:10.510Z,996.31
2022-12-08T04:59:51.237Z,996.28
2022-12-08T05:00:55.441Z,996.28
2022-12-08T05:01:48.375Z,996.30
2022-12-08T05:02:48.212Z,996.27
2022-12-08T05:03:49.188Z,996.27
2022-12-08T05:04:49.160Z,996.28
2022-12-08T05:05:48.148Z,996.28
2022-12-08T05:06:51.158Z,996.26
2022-12-08T05:07:48.175Z,996.23
2022-12-08T05:08:55.626Z,996.25
2022-12-08T05:09:51.386Z,996.25
2022-12-08T05:11:03.385Z,996.23
2022-12-08T05:11:49.196Z,996.25
2022-12-08T05:12:48.076Z,996.23
2022-12-08T05:13:48.069Z,996.26
2022-12-08T05:14:48.022Z,996.26
2022-12-08T05:15:49.149Z,996.25
2022-12-08T05:16:48.402Z,996.23
2022-12-08T05:17:48.236Z,996.22
2022-12-08T05:18:48.024Z,996.20
2022-12-08T05:19:49.231Z,996.21
2022-12-08T05:20:48.233Z,996.19
2022-12-08T05:21:49.012Z,996.15
2022-12-08T05:22:47.948Z,996.21
2022-12-08T05:23:47.969Z,996.17
2022-12-08T05:24:48.098Z,996.15
2022-12-08T05:25:48.164Z,996.15
2022-12-08T05:26:47.904Z,996.08
2022-12-08T05:27:47.915Z,996.10
2022-12-08T05:28:47.922Z,996.11
2022-12-08T05:29:55.435Z,996.08
2022-12-08T05:30:47.879Z,996.11
2022-12-08T05:31:47.970Z,996.06
2022-12-08T05:32:55.134Z,996.09
2022-12-08T05:33:48.898Z,996.06
2022-12-08T05:34:47.845Z,996.09
2022-12-08T05:35:49.102Z,996.08
2022-12-08T05:36:47.808Z,996.05
2022-12-08T05:37:47.799Z,996.08
2022-12-08T05:38:47.799Z,996.05
2022-12-08T05:39:47.796Z,996.08
2022-12-08T05:40:50.848Z,996.06
2022-12-08T05:41:48.762Z,996.10
2022-12-08T05:42:55.178Z,996.08
2022-12-08T05:43:51.039Z,996.06
2022-12-08T05:44:47.732Z,996.06
2022-12-08T05:45:50.817Z,996.05
2022-12-08T05:46:48.988Z,996.06
2022-12-08T05:47:48.965Z,996.00
2022-12-08T05:48:47.679Z,996.01
2022-12-08T05:49:47.949Z,996.03
2022-12-08T05:50:47.646Z,995.99
2022-12-08T05:51:47.664Z,996.02
2022-12-08T05:52:47.645Z,996.02
2022-12-08T05:53:47.634Z,996.02
2022-12-08T05:54:48.646Z,996.00
2022-12-08T05:55:47.649Z,996.03
2022-12-08T05:56:47.594Z,996.01
2022-12-08T05:57:47.840Z,996.03
2022-12-08T05:58:54.681Z,996.02
2022-12-08T05:59:47.804Z,996.00
2022-12-08T06:00:47.618Z,995.99
2022-12-08T06:01:48.654Z,995.98
2022-12-08T06:02:47.909Z,995.99
2022-12-08T06:03:47.775Z,995.97
2022-12-08T06:04:47.542Z,995.97
2022-12-08T06:05:47.515Z,996.00
2022-12-08T06:06:47.509Z,995.96
2022-12-08T06:07:47.537Z,995.95
2022-12-08T06:08:47.480Z,996.00
2022-12-08T06:09:47.489Z,995.97
2022-12-08T06:10:48.508Z,996.00
2022-12-08T06:11:47.467Z,996.02
2022-12-08T06:12:54.616Z,996.00
2022-12-08T06:13:47.421Z,996.01
2022-12-08T06:14:47.645Z,995.99
2022-12-08T06:15:47.403Z,995.97
2022-12-08T06:16:47.438Z,996.00
2022-12-08T06:17:47.398Z,996.00
2022-12-08T06:18:47.369Z,995.97
2022-12-08T06:19:47.607Z,995.95
2022-12-08T06:20:50.384Z,995.96
2022-12-08T06:21:47.370Z,995.94
2022-12-08T06:22:54.642Z,995.96
2022-12-08T06:23:50.599Z,995.97
2022-12-08T06:24:47.327Z,995.93
2022-12-08T06:25:47.535Z,995.97
2022-12-08T06:26:47.282Z,995.95
2022-12-08T06:27:54.477Z,995.96
2022-12-08T06:28:54.571Z,995.98
2022-12-08T06:29:47.288Z,995.99
2022-12-08T06:30:47.482Z,995.97
2022-12-08T06:31:54.394Z,995.96
2022-12-08T06:32:47.462Z,995.93
2022-12-08T06:33:47.480Z,995.96
2022-12-08T06:34:48.218Z,995.97
2022-12-08T06:35:47.216Z,995.98
2022-12-08T06:36:47.414Z,995.97
2022-12-08T06:37:50.205Z,996.00
2022-12-08T06:38:47.173Z,995.98
2022-12-08T06:39:47.167Z,995.95
2022-12-08T06:40:47.153Z,995.96
2022-12-08T06:41:47.164Z,995.95
2022-12-08T06:42:47.158Z,996.02
2022-12-08T06:44:02.424Z,995.96
2022-12-08T06:44:47.124Z,996.01
2022-12-08T06:45:47.135Z,995.99
2022-12-08T06:46:47.327Z,995.98
2022-12-08T06:47:48.366Z,996.00
2022-12-08T06:48:47.083Z,995.96
2022-12-08T06:49:47.294Z,996.00
2022-12-08T06:50:50.065Z,996.00
2022-12-08T06:51:47.289Z,996.01
2022-12-08T06:52:56.885Z,996.03
2022-12-08T06:53:49.039Z,996.03
2022-12-08T06:54:47.000Z,996.05
2022-12-08T06:56:02.301Z,995.99
2022-12-08T06:56:48.992Z,996.04
2022-12-08T06:57:46.970Z,996.05
2022-12-08T06:58:52.126Z,996.03
2022-12-08T06:59:47.978Z,996.03
2022-12-08T07:00:47.003Z,996.03
2022-12-08T07:01:47.228Z,996.08
2022-12-08T07:02:46.972Z,996.04
2022-12-08T07:03:46.924Z,996.05
2022-12-08T07:04:46.899Z,996.02
2022-12-08T07:05:47.067Z,996.03
2022-12-08T07:06:47.911Z,996.03
2022-12-08T07:07:47.003Z,996.02
2022-12-08T07:08:47.871Z,996.02
2022-12-08T07:09:46.858Z,996.03
2022-12-08T07:10:46.826Z,996.02
2022-12-08T07:11:46.879Z,996.02
2022-12-08T07:12:46.809Z,996.05
2022-12-08T07:13:46.830Z,996.02
2022-12-08T07:14:46.789Z,996.04
2022-12-08T07:15:46.791Z,996.00
2022-12-08T07:16:46.834Z,996.04
2022-12-08T07:17:46.759Z,996.02
2022-12-08T07:18:46.761Z,996.03
2022-12-08T07:19:46.784Z,996.01
2022-12-08T07:20:47.770Z,996.06
2022-12-08T07:21:46.792Z,996.07
2022-12-08T07:22:46.710Z,996.11
2022-12-08T07:23:46.707Z,996.10
2022-12-08T07:24:46.706Z,996.08
2022-12-08T07:25:46.715Z,996.06
2022-12-08T07:26:46.681Z,996.06
2022-12-08T07:27:47.712Z,996.07
2022-12-08T07:28:46.647Z,996.06
2022-12-08T07:29:46.642Z,996.04
2022-12-08T07:30:46.659Z,996.01
2022-12-08T07:31:46.645Z,996.02
2022-12-08T07:32:46.651Z,996.01
2022-12-08T07:33:46.590Z,996.03
2022-12-08T07:34:47.376Z,996.05
2022-12-08T07:35:49.417Z,996.02
2022-12-08T07:36:46.584Z,996.03
2022-12-08T07:37:46.568Z,996.03
2022-12-08T07:38:46.518Z,996.01
2022-12-08T07:39:46.563Z,996.03
2022-12-08T07:40:46.557Z,996.03
2022-12-08T07:41:46.517Z,995.96
2022-12-08T07:42:46.513Z,996.04
2022-12-08T07:43:46.510Z,996.01
2022-12-08T07:44:47.510Z,996.05
2022-12-08T07:45:46.543Z,996.02
2022-12-08T07:46:46.462Z,996.01
2022-12-08T07:47:46.517Z,996.03
2022-12-08T07:48:46.664Z,995.99
2022-12-08T07:49:46.449Z,996.03
2022-12-08T07:50:46.643Z,996.00
2022-12-08T07:51:46.429Z,995.99
2022-12-08T07:52:46.393Z,996.06
2022-12-08T07:53:51.800Z,996.03
2022-12-08T07:54:47.373Z,996.04
2022-12-08T07:55:46.376Z,996.02
2022-12-08T07:56:46.354Z,996.05
2022-12-08T07:57:46.364Z,996.06
2022-12-08T07:58:46.326Z,996.02
2022-12-08T07:59:46.364Z,996.03
2022-12-08T08:00:46.341Z,996.02
2022-12-08T08:01:50.028Z,996.01
2022-12-08T08:02:47.335Z,996.04
2022-12-08T08:03:46.291Z,996.08
2022-12-08T08:04:46.342Z,996.05
2022-12-08T08:05:46.288Z,996.08
2022-12-08T08:06:46.269Z,996.03
2022-12-08T08:07:46.294Z,996.08
2022-12-08T08:08:46.223Z,996.06
2022-12-08T08:09:46.252Z,996.05
2022-12-08T08:10:46.214Z,996.00
2022-12-08T08:12:07.255Z,996.03
2022-12-08T08:12:47.198Z,996.01
2022-12-08T08:13:46.199Z,996.03
2022-12-08T08:14:46.174Z,996.00
2022-12-08T08:15:47.318Z,996.03
2022-12-08T08:16:46.206Z,995.97
2022-12-08T08:17:46.157Z,996.01
2022-12-08T08:18:46.140Z,995.99
2022-12-08T08:19:46.146Z,995.98
2022-12-08T08:20:46.096Z,995.99
2022-12-08T08:21:46.533Z,995.96
2022-12-08T08:22:46.083Z,995.98
2022-12-08T08:23:46.070Z,996.02
2022-12-08T08:24:46.079Z,996.00
2022-12-08T08:25:46.070Z,996.02
2022-12-08T08:26:46.033Z,996.05
2022-12-08T08:27:46.038Z,996.04
2022-12-08T08:28:46.006Z,996.06
2022-12-08T08:29:46.040Z,996.06
2022-12-08T08:30:46.056Z,996.02
2022-12-08T08:31:46.024Z,996.06
2022-12-08T08:32:45.965Z,996.09
2022-12-08T08:33:45.980Z,996.07
2022-12-08T08:34:45.977Z,996.06
2022-12-08T08:35:46.157Z,996.04
2022-12-08T08:36:46.022Z,996.08
2022-12-08T08:37:49.214Z,996.06
2022-12-08T08:38:45.963Z,996.06
2022-12-08T08:39:45.995Z,996.04
2022-12-08T08:40:45.911Z,996.04
2022-12-08T08:41:45.904Z,996.08
2022-12-08T08:42:45.867Z,996.05
2022-12-08T08:43:45.882Z,996.06
2022-12-08T08:44:45.845Z,996.05
2022-12-08T08:45:45.881Z,996.05
2022-12-08T08:46:45.878Z,996.05
2022-12-08T08:47:45.830Z,996.02
2022-12-08T08:48:45.803Z,996.00
2022-12-08T08:49:45.803Z,996.02
2022-12-08T08:50:45.817Z,996.03
2022-12-08T08:51:45.805Z,996.02
2022-12-08T08:52:45.747Z,996.00
2022-12-08T08:53:45.764Z,996.04
2022-12-08T08:54:45.752Z,996.01
2022-12-08T08:55:45.758Z,995.99
2022-12-08T08:56:45.753Z,995.97
2022-12-08T08:57:45.712Z,995.99
2022-12-08T08:58:45.723Z,995.95
2022-12-08T08:59:45.700Z,995.98
2022-12-08T09:00:45.728Z,995.97
2022-12-08T09:01:45.779Z,995.97
2022-12-08T09:02:45.692Z,995.95
2022-12-08T09:03:45.661Z,996.01
2022-12-08T09:04:45.738Z,995.97
2022-12-08T09:05:45.654Z,995.95
2022-12-08T09:06:45.656Z,995.95
2022-12-08T09:07:45.718Z,995.98
2022-12-08T09:08:45.635Z,996.02
2022-12-08T09:09:45.575Z,996.03
2022-12-08T09:10:45.585Z,996.03
2022-12-08T09:11:45.620Z,996.03
2022-12-08T09:12:45.581Z,996.01
2022-12-08T09:13:45.574Z,996.00
2022-12-08T09:14:45.551Z,995.93
2022-12-08T09:15:45.610Z,995.94
2022-12-08T09:16:45.604Z,995.98
2022-12-08T09:17:45.502Z,995.94
2022-12-08T09:18:45.507Z,995.90
2022-12-08T09:19:45.733Z,995.88
2022-12-08T09:20:45.508Z,995.94
2022-12-08T09:21:45.463Z,995.90
2022-12-08T09:22:45.489Z,995.91
2022-12-08T09:23:45.477Z,995.90
2022-12-08T09:24:45.447Z,995.93
2022-12-08T09:25:45.463Z,995.90
2022-12-08T09:26:45.414Z,995.92
2022-12-08T09:27:45.421Z,995.92
2022-12-08T09:28:45.398Z,995.94
2022-12-08T09:29:45.375Z,995.91
2022-12-08T09:30:45.400Z,995.87
2022-12-08T09:31:45.424Z,995.91
2022-12-08T09:32:45.378Z,995.87
2022-12-08T09:33:45.331Z,995.85
2022-12-08T09:34:50.484Z,995.86
2022-12-08T09:35:46.329Z,995.85
2022-12-08T09:36:45.316Z,995.84
2022-12-08T09:37:45.336Z,995.87
2022-12-08T09:38:45.322Z,995.84
2022-12-08T09:39:45.274Z,995.85
2022-12-08T09:40:45.267Z,995.86
2022-12-08T09:41:48.224Z,995.81
2022-12-08T09:42:45.277Z,995.84
2022-12-08T09:43:45.282Z,995.83
2022-12-08T09:44:45.267Z,995.88
2022-12-08T09:45:45.203Z,995.85
2022-12-08T09:46:45.265Z,995.81
2022-12-08T09:47:45.195Z,995.82
2022-12-08T09:48:45.209Z,995.79
2022-12-08T09:49:45.201Z,995.81
2022-12-08T09:50:45.174Z,995.75
2022-12-08T09:51:45.155Z,995.74
2022-12-08T09:52:45.151Z,995.71
2022-12-08T09:53:45.140Z,995.70
2022-12-08T09:54:45.138Z,995.74
2022-12-08T09:55:45.128Z,995.74
2022-12-08T09:56:45.100Z,995.73
2022-12-08T09:57:45.090Z,995.67
2022-12-08T09:58:45.126Z,995.67
2022-12-08T09:59:45.077Z,995.70
2022-12-08T10:00:45.089Z,995.68
2022-12-08T10:01:45.083Z,995.69
2022-12-08T10:02:45.048Z,995.65
2022-12-08T10:03:45.059Z,995.64
2022-12-08T10:04:45.108Z,995.64
2022-12-08T10:05:45.030Z,995.64
2022-12-08T10:06:44.999Z,995.60
2022-12-08T10:07:45.071Z,995.58
2022-12-08T10:08:45.026Z,995.59
2022-12-08T10:09:44.996Z,995.54
2022-12-08T10:10:44.984Z,995.51
2022-12-08T10:11:44.955Z,995.49
2022-12-08T10:12:44.940Z,995.50
2022-12-08T10:13:44.924Z,995.52
2022-12-08T10:14:44.947Z,995.47
2022-12-08T10:15:44.961Z,995.49
2022-12-08T10:16:44.920Z,995.53
2022-12-08T10:17:44.883Z,995.46
2022-12-08T10:18:44.901Z,995.51
2022-12-08T10:19:44.886Z,995.54
2022-12-08T10:20:44.864Z,995.48
2022-12-08T10:21:44.857Z,995.47
2022-12-08T10:22:45.246Z,995.48
2022-12-08T10:23:44.842Z,995.46
2022-12-08T10:24:44.855Z,995.45
2022-12-08T10:25:44.788Z,995.40
2022-12-08T10:26:44.816Z,995.42
2022-12-08T10:27:44.768Z,995.42
2022-12-08T10:28:45.786Z,995.42
2022-12-08T10:29:44.769Z,995.46
2022-12-08T10:30:44.750Z,995.44
2022-12-08T10:31:44.844Z,995.40
2022-12-08T10:32:44.740Z,995.39
2022-12-08T10:33:44.711Z,995.37
2022-12-08T10:34:44.735Z,995.33
2022-12-08T10:35:44.702Z,995.33
2022-12-08T10:36:44.743Z,995.37
2022-12-08T10:37:44.672Z,995.35
2022-12-08T10:38:44.688Z,995.30
2022-12-08T10:39:44.639Z,995.36
2022-12-08T10:40:45.863Z,995.31
2022-12-08T10:41:44.654Z,995.33
2022-12-08T10:42:44.656Z,995.30
2022-12-08T10:43:44.622Z,995.34
2022-12-08T10:44:44.626Z,995.32
2022-12-08T10:45:44.660Z,995.34
2022-12-08T10:46:44.638Z,995.30
2022-12-08T10:47:45.679Z,995.28
2022-12-08T10:48:44.569Z,995.28
2022-12-08T10:49:44.548Z,995.25
2022-12-08T10:50:44.564Z,995.27
2022-12-08T10:51:44.533Z,995.22
2022-12-08T10:52:44.562Z,995.19
2022-12-08T10:53:44.507Z,995.23
2022-12-08T10:54:44.545Z,995.16
2022-12-08T10:55:44.495Z,995.12
2022-12-08T10:56:44.576Z,995.16
2022-12-08T10:57:44.474Z,995.21
2022-12-08T10:58:44.459Z,995.14
2022-12-08T10:59:44.473Z,995.16
2022-12-08T11:00:44.547Z,995.12
2022-12-08T11:01:44.561Z,995.10
2022-12-08T11:02:44.470Z,995.08
2022-12-08T11:03:44.414Z,995.05
2022-12-08T11:04:44.401Z,995.09
2022-12-08T11:05:44.409Z,995.10
2022-12-08T11:06:44.380Z,995.11
2022-12-08T11:07:44.425Z,995.12
2022-12-08T11:08:44.360Z,995.16
2022-12-08T11:09:44.336Z,995.10
2022-12-08T11:10:44.368Z,995.12
2022-12-08T11:11:44.357Z,995.08
2022-12-08T11:12:44.313Z,995.06
2022-12-08T11:13:44.283Z,995.07
2022-12-08T11:14:44.297Z,995.04
2022-12-08T11:15:44.269Z,995.06
2022-12-08T11:16:44.350Z,995.08
2022-12-08T11:17:44.265Z,995.03
2022-12-08T11:18:44.270Z,995.01
2022-12-08T11:19:44.257Z,994.96
2022-12-08T11:20:44.239Z,994.93
2022-12-08T11:21:44.237Z,994.98
2022-12-08T11:22:44.223Z,994.96
2022-12-08T11:23:44.196Z,994.92
2022-12-08T11:24:44.197Z,994.95
2022-12-08T11:25:44.173Z,994.93
2022-12-08T11:26:44.252Z,994.90
2022-12-08T11:27:44.154Z,994.88
2022-12-08T11:28:44.167Z,994.84
2022-12-08T11:29:44.141Z,994.82
2022-12-08T11:30:44.131Z,994.83
2022-12-08T11:31:44.234Z,994.80
2022-12-08T11:32:44.116Z,994.76
2022-12-08T11:33:44.097Z,994.82
2022-12-08T11:34:44.092Z,994.80
2022-12-08T11:35:44.059Z,994.80
2022-12-08T11:36:44.089Z,994.81
2022-12-08T11:37:44.060Z,994.80
2022-12-08T11:38:44.140Z,994.76
2022-12-08T11:39:44.103Z,994.74
2022-12-08T11:40:44.013Z,994.78
2022-12-08T11:41:44.038Z,994.70
2022-12-08T11:42:44.026Z,994.74
2022-12-08T11:43:44.007Z,994.68
2022-12-08T11:44:43.997Z,994.73
2022-12-08T11:45:43.989Z,994.73
2022-12-08T11:46:43.960Z,994.69
2022-12-08T11:47:43.971Z,994.69
2022-12-08T11:48:46.985Z,994.70
2022-12-08T11:49:43.932Z,994.64
2022-12-08T11:50:43.916Z,994.64
2022-12-08T11:51:43.902Z,994.63
2022-12-08T11:52:43.992Z,994.61
2022-12-08T11:53:43.873Z,994.60
2022-12-08T11:54:43.883Z,994.58
2022-12-08T11:55:48.187Z,994.61
2022-12-08T11:56:44.872Z,994.62
2022-12-08T11:57:43.906Z,994.60
2022-12-08T11:58:43.867Z,994.59
2022-12-08T11:59:43.813Z,994.62
2022-12-08T12:00:43.814Z,994.56
2022-12-08T12:01:43.854Z,994.64
2022-12-08T12:02:43.917Z,994.57
2022-12-08T12:03:43.833Z,994.59
2022-12-08T12:04:43.801Z,994.56
2022-12-08T12:06:30.376Z,994.56
2022-12-08T12:06:54.802Z,994.61
2022-12-08T12:07:44.783Z,994.56
2022-12-08T12:08:43.744Z,994.58
2022-12-08T12:09:43.701Z,994.56
2022-12-08T12:10:43.732Z,994.59
2022-12-08T12:11:43.698Z,994.54
2022-12-08T12:12:43.703Z,994.53
2022-12-08T12:13:43.693Z,994.55
2022-12-08T12:14:43.685Z,994.54
2022-12-08T12:15:43.683Z,994.52
2022-12-08T12:16:43.688Z,994.57
2022-12-08T12:17:43.635Z,994.53
2022-12-08T12:18:43.683Z,994.54
2022-12-08T12:19:43.619Z,994.49
2022-12-08T12:20:43.622Z,994.53
2022-12-08T12:21:43.582Z,994.50
2022-12-08T12:22:43.595Z,994.49
2022-12-08T12:23:43.625Z,994.46
2022-12-08T12:24:43.556Z,994.47
2022-12-08T12:25:43.560Z,994.43
2022-12-08T12:26:43.563Z,994.40
2022-12-08T12:27:43.542Z,994.36
2022-12-08T12:28:43.593Z,994.35
2022-12-08T12:29:43.516Z,994.34